Latest Weather Observations for Jabiru

IDD60801

Issued at 2:01 pm CST Friday 30 September 2016 (issued every 30 minutes, with the page automatically refreshed every 10 minutes)

About weather observations | Map of weather stations | Latest weather observations for NT | Other Formats
Station Details ID: 014198 Name: JABIRU AIRPORT Lat: -12.66 Lon: 132.89 Height: 26.5 m
Data from the previous 72 hours. | See also: Recent months at Jabiru
Date/Time
CST
Temp
°C
App
Temp
°C
Dew
Point
°C
Rel
Hum
%
Delta-T
°C
Wind Press
QNH
hPa
Press
MSL
hPa
Rain since
9am
mm
Dir  Spd
km/h
Gust
km/h
Spd
kts
Gust
kts
30/02:00pm 35.0 36.7 20.2 42 9.9 W 11 19 6 10 1007.4 1007.3 0.0
30/01:30pm 34.8 37.5 20.7 43 9.5 NE 7 20 4 11 1007.8 1007.7 0.0
30/01:00pm 33.6 35.9 20.7 46 8.7 NNW 9 15 5 8 1008.6 1008.4 0.0
30/12:30pm 33.8 35.5 20.2 44 9.1 NW 11 17 6 9 1009.2 1009.0 0.0
30/12:00pm 32.9 34.8 19.7 45 8.7 NW 9 17 5 9 1009.7 1009.5 0.0
30/11:30am 32.9 35.5 20.1 47 8.5 SW 6 15 3 8 1010.2 1010.0 0.0
30/11:00am 32.2 34.8 20.5 50 7.8 ENE 7 9 4 5 1010.7 1010.5 0.0
30/10:30am 30.7 33.8 21.5 58 6.2 SSE 7 9 4 5 1011.0 1010.8 0.0
30/10:00am 30.2 33.9 22.6 63 5.2 SSE 7 11 4 6 1011.2 1011.0 0.0
30/09:30am 30.0 34.1 23.2 67 4.7 E 7 11 4 6 1011.3 1011.1 0.0
30/09:00am 29.3 32.8 22.8 68 4.4 ENE 9 15 5 8 1011.2 1011.0 7.4
30/08:30am 28.9 33.4 24.0 75 3.4 E 7 13 4 7 1011.0 1010.8 7.4
30/08:00am 27.6 32.2 24.2 82 2.4 ENE 7 9 4 5 1010.7 1010.5 7.4
30/07:30am 26.4 30.9 23.9 86 1.7 E 7 9 4 5 1010.6 1010.4 7.4
30/07:00am 25.7 30.3 24.1 91 1.1 ESE 7 9 4 5 1010.2 1010.0 7.4
30/06:30am 25.6 31.6 24.2 92 1.0 CALM 0 6 0 3 1009.8 1009.6 7.4
30/06:00am 25.9 31.9 24.3 91 1.1 CALM 0 0 0 0 1009.4 1009.2 7.4
30/05:30am 26.2 32.3 24.4 90 1.2 CALM 0 0 0 0 1009.0 1008.8 7.4
30/05:00am 26.2 31.0 24.2 89 1.4 ENE 6 6 3 3 1008.8 1008.6 7.4
30/04:30am 26.2 31.0 24.1 88 1.4 ENE 6 7 3 4 1008.7 1008.5 7.4
30/04:00am 26.6 31.3 23.9 85 1.9 E 6 9 3 5 1008.9 1008.7 7.4
30/03:30am 26.8 31.4 24.1 85 1.9 ENE 7 9 4 5 1009.0 1008.8 7.4
30/03:00am 26.7 31.4 24.0 85 1.9 NE 6 7 3 4 1008.9 1008.7 7.4
30/02:30am 26.7 31.7 23.8 84 2.0 NNE 4 7 2 4 1009.1 1008.9 7.4
30/02:00am 26.7 31.6 23.6 83 2.1 NNE 4 7 2 4 1009.3 1009.1 7.4
30/01:30am 26.6 30.9 23.7 84 2.0 N 7 11 4 6 1009.2 1009.0 7.4
30/01:00am 26.6 30.8 23.5 83 2.1 N 7 9 4 5 1009.6 1009.4 7.4
30/12:30am 26.9 31.5 23.8 83 2.1 N 6 9 3 5 1009.8 1009.6 7.4
30/12:00am 27.0 31.8 24.1 84 2.0 NNW 6 7 3 4 1010.0 1009.8 7.4
 
Date/Time
CST
Temp
°C
App
Temp
°C
Dew
Point
°C
Rel
Hum
%
Delta-T
°C
Wind Press
QNH
hPa
Press
MSL
hPa
Rain since
9am
mm
Dir  Spd
km/h
Gust
km/h
Spd
kts
Gust
kts
29/11:30pm 26.9 32.9 24.2 85 1.9 CALM 0 6 0 3 1010.3 1010.1 7.4
29/11:00pm 26.3 31.3 24.5 90 1.2 WSW 6 7 3 4 1010.4 1010.2 7.4
29/10:30pm 26.0 30.8 24.4 91 1.1 WSW 7 9 4 5 1010.1 1009.9 7.4
29/10:00pm 25.8 30.4 23.8 89 1.4 WSW 6 9 3 5 1009.9 1009.7 7.4
29/09:30pm 25.8 31.3 24.0 90 1.2 SSW 2 7 1 4 1009.4 1009.2 7.4
29/09:00pm 25.5 30.5 23.9 91 1.1 SW 4 7 2 4 1008.8 1008.6 7.4
29/08:30pm 25.6 30.9 23.7 89 1.3 W 2 6 1 3 1008.7 1008.5 7.4
29/08:00pm 25.5 29.7 23.4 88 1.4 E 7 9 4 5 1008.2 1008.0 7.4
29/07:30pm 25.2 28.2 23.4 90 1.2 E 13 15 7 8 1007.4 1007.3 7.4
29/07:00pm 25.6 29.7 22.9 85 1.8 NNW 6 9 3 5 1007.2 1007.1 7.4
29/06:30pm 25.4 29.5 23.3 88 1.4 E 7 11 4 6 1006.8 1006.7 7.4
29/06:00pm 25.2 27.1 22.7 86 1.7 NW 17 26 9 14 1006.6 1006.5 7.4
29/05:30pm 25.4 26.8 22.9 86 1.7 W 20 33 11 18 1007.3 1007.2 6.0
29/05:00pm 28.0 27.8 23.4 76 3.2 SE 30 50 16 27 1006.4 1006.3 4.6
29/04:51pm 26.3 25.1 20.8 71 3.6 SE 28 50 15 27 1006.2 1006.1 1.8
29/04:46pm 25.7 25.6 20.0 71 3.7 SE 20 37 11 20 1006.4 1006.3 1.8
29/04:30pm 31.1 31.4 20.7 54 6.9 ESE 20 30 11 16 1006.4 1006.3 0.0
29/04:00pm 35.3 36.7 19.6 39 10.4 N 11 15 6 8 1005.4 1005.3 0.0
29/03:30pm 36.3 38.2 19.7 37 11.1 WNW 9 15 5 8 1005.6 1005.5 0.0
29/03:00pm 36.2 38.4 19.6 37 11.1 W 7 17 4 9 1005.6 1005.5 0.0
29/02:30pm 36.0 37.7 19.4 37 11.0 NE 9 15 5 8 1006.2 1006.1 0.0
29/02:00pm 35.9 36.8 19.3 37 11.0 WNW 13 24 7 13 1006.7 1006.6 0.0
29/01:30pm 35.2 35.6 19.1 38 10.6 WNW 15 20 8 11 1007.4 1007.3 0.0
29/01:00pm 34.6 36.5 20.6 44 9.4 WNW 11 19 6 10 1007.9 1007.8 0.0
29/12:30pm 34.5 37.5 21.2 46 9.0 SW 7 13 4 7 1008.6 1008.4 0.0
29/12:00pm 33.4 34.0 18.7 41 9.6 WSW 13 19 7 10 1009.4 1009.2 0.0
29/11:30am 33.6 37.4 22.7 53 7.5 WSW 7 15 4 8 1009.9 1009.7 0.0
29/11:00am 32.1 35.4 21.9 54 6.9 SW 7 22 4 12 1010.4 1010.2 0.0
29/10:30am 31.6 34.8 22.3 57 6.3 WSW 9 15 5 8 1010.8 1010.6 0.0
29/10:00am 30.7 34.0 22.6 62 5.5 WSW 9 15 5 8 1010.7 1010.5 0.0
29/09:30am 29.7 33.5 23.4 69 4.3 WNW 9 15 5 8 1010.9 1010.7 0.0
29/09:00am 29.3 34.0 24.0 73 3.7 NNW 6 11 3 6 1010.5 1010.3 0.0
29/08:30am 28.3 32.9 23.2 74 3.5 NW 4 7 2 4 1010.3 1010.1 0.0
29/08:00am 27.4 32.8 23.2 78 2.9 CALM 0 0 0 0 1010.1 1009.9 0.0
29/07:30am 26.8 32.4 23.5 82 2.3 CALM 0 0 0 0 1009.8 1009.6 0.0
29/07:00am 25.5 29.9 22.8 85 1.8 NW 4 6 2 3 1009.2 1009.0 0.0
29/06:30am 25.4 30.7 23.1 87 1.6 CALM 0 6 0 3 1009.0 1008.8 0.0
29/06:00am 26.0 31.4 23.3 85 1.8 CALM 0 0 0 0 1009.0 1008.8 0.0
29/05:30am 25.9 31.2 23.0 84 2.0 CALM 0 0 0 0 1008.8 1008.6 0.0
29/05:00am 26.1 31.3 22.8 82 2.2 CALM 0 0 0 0 1008.5 1008.3 0.0
29/04:30am 26.2 30.9 22.7 81 2.4 N 2 6 1 3 1008.5 1008.3 0.0
29/04:00am 25.9 29.7 22.8 83 2.1 NNE 7 9 4 5 1008.3 1008.1 0.0
29/03:30am 26.0 30.0 22.7 82 2.2 ENE 6 7 3 4 1008.4 1008.2 0.0
29/03:00am 26.3 30.7 22.8 81 2.4 NE 4 6 2 3 1008.6 1008.4 0.0
29/02:30am 26.5 30.4 22.6 79 2.6 NNE 6 7 3 4 1008.8 1008.6 0.0
29/02:00am 27.3 31.2 22.5 75 3.2 NW 6 7 3 4 1009.5 1009.3 0.0
29/01:30am 27.2 30.9 22.6 76 3.1 WSW 7 7 4 4 1009.6 1009.4 0.0
29/01:00am 27.7 31.6 22.6 74 3.5 WNW 6 7 3 4 1009.9 1009.7 0.0
29/12:30am 27.7 31.4 22.6 74 3.5 W 7 9 4 5 1010.2 1010.0 0.0
29/12:00am 28.1 31.9 22.8 73 3.6 NW 7 9 4 5 1010.4 1010.2 0.0
 
Date/Time
CST
Temp
°C
App
Temp
°C
Dew
Point
°C
Rel
Hum
%
Delta-T
°C
Wind Press
QNH
hPa
Press
MSL
hPa
Rain since
9am
mm
Dir  Spd
km/h
Gust
km/h
Spd
kts
Gust
kts
28/11:30pm 28.4 32.3 22.9 72 3.8 NW 7 9 4 5 1010.6 1010.4 0.0
28/11:00pm 28.6 32.1 22.8 71 4.0 NW 9 11 5 6 1010.7 1010.5 0.0
28/10:30pm 28.8 32.1 22.5 68 4.3 NNW 9 13 5 7 1010.5 1010.3 0.0
28/10:00pm 29.2 32.4 22.4 66 4.6 NNW 9 13 5 7 1010.3 1010.1 0.0
28/09:30pm 29.7 32.6 22.4 65 5.0 NW 11 17 6 9 1010.2 1010.0 0.0
28/09:00pm 30.0 33.0 21.9 62 5.5 NNW 9 15 5 8 1009.7 1009.5 0.0
28/08:30pm 30.4 32.0 21.5 59 6.0 N 15 20 8 11 1009.3 1009.1 0.0
28/08:00pm 31.2 32.6 21.9 57 6.3 N 17 22 9 12 1008.8 1008.6 0.0
28/07:30pm 32.1 34.4 21.3 53 7.3 N 11 19 6 10 1008.3 1008.1 0.0
28/07:00pm 33.4 36.1 20.2 46 8.8 W 6 6 3 3 1007.7 1007.6 0.0
28/06:30pm 34.0 36.4 20.0 43 9.3 NW 7 9 4 5 1007.5 1007.4 0.0
28/06:00pm 34.7 36.3 19.1 39 10.3 NNW 9 11 5 6 1007.3 1007.2 0.0
28/05:30pm 35.1 36.7 17.8 36 11.2 N 6 9 3 5 1006.9 1006.8 0.0
28/05:00pm 36.3 39.3 18.4 35 11.7 CALM 0 6 0 3 1006.8 1006.7 0.0
28/04:30pm 36.1 38.2 18.2 34 11.7 SSE 4 7 2 4 1006.8 1006.7 0.0
28/04:00pm 34.6 36.1 19.0 39 10.3 NNE 9 13 5 7 1007.0 1006.9 0.0
28/03:30pm 35.4 37.6 19.7 39 10.5 N 7 11 4 6 1007.4 1007.3 0.0
28/03:00pm 35.0 37.1 20.2 42 9.9 E 9 11 5 6 1007.8 1007.7 0.0
28/02:30pm 34.6 36.3 19.4 40 10.1 NE 9 19 5 10 1008.5 1008.3 0.0
28/02:00pm 34.9 37.7 20.8 43 9.5 N 7 17 4 9 1008.9 1008.7 0.0
28/01:30pm 34.1 35.6 19.7 42 9.6 N 11 22 6 12 1009.3 1009.1 0.0
28/01:00pm 34.0 35.6 20.7 45 8.9 N 13 19 7 10 1009.9 1009.7 0.0
28/12:30pm 33.4 35.3 19.8 44 9.0 NNW 9 22 5 12 1010.4 1010.2 0.0
28/12:00pm 32.8 34.6 20.3 47 8.3 NW 11 17 6 9 1010.8 1010.6 0.0
28/11:30am 32.4 34.3 20.6 49 7.9 NW 11 20 6 11 1011.2 1011.0 0.0
28/11:00am 31.4 33.6 20.4 52 7.3 N 9 15 5 8 1011.7 1011.5 0.0
28/10:30am 30.6 32.8 21.1 57 6.4 WNW 11 15 6 8 1012.1 1011.9 0.0
28/10:00am 30.7 33.5 21.5 58 6.2 NW 9 15 5 8 1012.2 1012.0 0.0
28/09:30am 30.0 32.6 21.9 62 5.5 NW 11 17 6 9 1012.1 1011.9 0.0
28/09:00am 28.7 32.2 22.9 71 4.0 NNW 9 17 5 9 1012.2 1012.0 0.0
28/08:30am 28.2 31.8 23.1 74 3.5 NNW 9 11 5 6 1012.2 1012.0 0.0
28/08:00am 27.2 31.5 23.7 81 2.4 N 7 9 4 5 1012.0 1011.8 0.0
28/07:30am 26.4 32.0 23.5 84 2.0 CALM 0 2 0 1 1011.6 1011.4 0.0
28/07:00am 25.7 31.1 23.2 86 1.7 CALM 0 0 0 0 1011.0 1010.8 0.0
28/06:30am 25.4 30.6 23.5 89 1.3 WNW 2 13 1 7 1010.7 1010.5 0.0
28/06:00am 25.1 30.4 23.0 88 1.4 CALM 0 0 0 0 1010.3 1010.1 0.0
28/05:30am 25.2 30.4 22.9 87 1.6 CALM 0 0 0 0 1010.1 1009.9 0.0
28/05:00am 25.4 30.7 23.1 87 1.6 CALM 0 0 0 0 1009.7 1009.5 0.0
28/04:30am 25.1 29.0 23.0 88 1.4 SW 7 9 4 5 1009.6 1009.4 0.0
28/04:00am 25.3 30.6 23.0 87 1.6 CALM 0 7 0 4 1009.4 1009.2 0.0
28/03:30am 25.7 29.9 23.2 86 1.7 W 6 7 3 4 1009.6 1009.4 0.0
28/03:00am 26.0 30.1 22.9 83 2.1 NW 6 7 3 4 1009.7 1009.5 0.0
28/02:30am 26.5 31.1 23.2 82 2.3 WNW 4 6 2 3 1009.5 1009.3 0.0
28/02:00am 26.8 31.0 23.1 80 2.5 NNW 6 7 3 4 1009.6 1009.4 0.0
28/01:30am 26.7 30.6 23.0 80 2.5 NNW 7 9 4 5 1009.7 1009.5 0.0
28/01:00am 26.8 30.7 22.6 78 2.8 N 6 7 3 4 1010.0 1009.8 0.0
28/12:30am 27.0 30.2 22.4 76 3.1 N 9 11 5 6 1010.4 1010.2 0.0
28/12:00am 27.3 30.3 22.7 76 3.1 N 11 17 6 9 1010.9 1010.7 0.0
 
Date/Time
CST
Temp
°C
App
Temp
°C
Dew
Point
°C
Rel
Hum
%
Delta-T
°C
Wind Press
QNH
hPa
Press
MSL
hPa
Rain since
9am
mm
Dir  Spd
km/h
Gust
km/h
Spd
kts
Gust
kts
27/11:30pm 27.6 30.9 22.5 74 3.5 NNW 9 13 5 7 1010.8 1010.6 0.0
27/11:00pm 28.0 31.7 22.5 72 3.7 NNW 7 13 4 7 1011.0 1010.8 0.0
27/10:30pm 28.4 32.5 23.3 74 3.5 NNW 7 9 4 5 1011.1 1010.9 0.0
27/10:00pm 28.8 33.0 23.5 73 3.6 N 7 11 4 6 1010.8 1010.6 0.0
27/09:30pm 29.2 33.0 23.4 71 4.0 N 9 13 5 7 1010.5 1010.3 0.0
27/09:00pm 29.5 33.2 23.2 69 4.3 N 9 13 5 7 1010.0 1009.8 0.0
27/08:30pm 30.1 33.5 23.3 67 4.7 N 11 15 6 8 1009.5 1009.3 0.0
27/08:00pm 30.8 34.1 23.2 64 5.2 NNW 11 19 6 10 1009.3 1009.1 0.0
27/07:30pm 31.3 33.9 22.6 60 6.0 N 13 17 7 9 1009.0 1008.8 0.0
27/07:00pm 31.9 34.3 22.3 56 6.6 NNW 13 20 7 11 1008.4 1008.2 0.0
27/06:30pm 32.8 34.3 22.0 53 7.4 N 17 20 9 11 1007.8 1007.7 0.0
27/06:00pm 33.9 35.0 21.3 47 8.5 NNW 17 30 9 16 1007.5 1007.4 0.0
27/05:30pm 35.6 37.2 19.1 38 10.9 NNW 9 13 5 7 1006.9 1006.8 0.0
27/05:00pm 35.8 37.5 18.4 35 11.4 NE 7 11 4 6 1006.8 1006.7 0.0
27/04:30pm 35.9 36.5 18.5 36 11.4 N 13 19 7 10 1006.9 1006.8 0.0
27/04:00pm 35.9 35.9 17.1 32 12.1 N 13 20 7 11 1007.1 1007.0 0.0
27/03:30pm 36.2 36.5 18.7 35 11.5 NNE 15 30 8 16 1007.4 1007.3 0.0
27/03:00pm 35.7 36.3 18.7 36 11.2 NNE 13 20 7 11 1007.6 1007.5 0.0
27/02:30pm 35.2 35.3 19.1 38 10.6 NE 17 26 9 14 1007.9 1007.8 0.0

Other Formats:

Comma delimited format used in spreadsheet applications
http://www.bom.gov.au/fwo/IDD60801/IDD60801.94137.axf

JavaScript Object Notation format (JSON) in row-major order
http://www.bom.gov.au/fwo/IDD60801/IDD60801.94137.json